Edmonton Stony Plain Alta., Canada
Current Conditions -  °F | °C
As of 5:00 PM on Friday 21 Nov 2014 (Local Time) from CWSE Reporting Station
Few Clouds Few Clouds  
Wind Chill: 30°   Ceiling: Unl
Heat Index: 35°   Visibility: 15mi
Dew Point: 33°   Wind: 6mph
Humidity: 94%   Direction: 80°E
Pressure: 29.46"   Gusts: NA
Location:  53.53°N, 114.1°W
Report Text: CWSE 220000Z 08005KT 15SM FEW138 FEW197 02/01 A2946 RMK SLP995 T00150006 WSI/SWOB
Loading
Personal Weather Stations






























Interactive Weather Map New forecast layout! Learn more

10-Day Weather Forecast

Advertisements
Track Severe Weather on mobile